createdAt,value
2018-11-01T00:00:23.173Z,9.61
2018-11-01T00:01:22.697Z,9.62
2018-11-01T00:02:23.302Z,9.64
2018-11-01T00:03:22.707Z,9.62
2018-11-01T00:04:23.078Z,9.61
2018-11-01T00:05:23.411Z,9.61
2018-11-01T00:06:22.514Z,9.59
2018-11-01T00:07:22.853Z,9.56
2018-11-01T00:08:23.400Z,9.56
2018-11-01T00:09:22.889Z,9.51
2018-11-01T00:10:23.210Z,9.55
2018-11-01T00:11:22.778Z,9.54
2018-11-01T00:12:44.257Z,9.51
2018-11-01T00:14:05.570Z,9.55
2018-11-01T00:15:06.109Z,9.51
2018-11-01T00:16:05.549Z,9.51
2018-11-01T00:17:06.098Z,9.50
2018-11-01T00:18:06.300Z,9.44
2018-11-01T00:19:05.715Z,9.46
2018-11-01T00:20:06.176Z,9.46
2018-11-01T00:21:06.344Z,9.40
2018-11-01T00:22:05.869Z,9.44
2018-11-01T00:23:06.059Z,9.44
2018-11-01T00:24:06.609Z,9.41
2018-11-01T00:25:06.107Z,9.40
2018-11-01T00:26:05.601Z,9.39
2018-11-01T00:27:06.112Z,9.37
2018-11-01T00:28:05.566Z,9.36
2018-11-01T00:29:05.969Z,9.36
2018-11-01T00:30:06.258Z,9.37
2018-11-01T00:31:05.471Z,9.39
2018-11-01T00:32:05.894Z,9.39
2018-11-01T00:33:06.483Z,9.40
2018-11-01T00:34:26.933Z,9.40
2018-11-01T00:35:27.156Z,9.41
2018-11-01T00:36:48.574Z,9.44
2018-11-01T00:37:48.866Z,9.44
2018-11-01T00:38:49.376Z,9.44
2018-11-01T00:39:48.839Z,9.46
2018-11-01T00:40:49.312Z,9.44
2018-11-01T00:41:48.606Z,9.44
2018-11-01T00:42:48.942Z,9.44
2018-11-01T00:43:49.581Z,9.46
2018-11-01T00:44:49.018Z,9.46
2018-11-01T00:45:49.356Z,9.44
2018-11-01T00:46:48.724Z,9.44
2018-11-01T00:47:48.996Z,9.43
2018-11-01T00:48:49.416Z,9.44
2018-11-01T00:49:49.372Z,9.44
2018-11-01T00:50:48.885Z,9.41
2018-11-01T00:51:49.241Z,9.40
2018-11-01T00:52:48.551Z,9.40
2018-11-01T00:53:49.047Z,9.40
2018-11-01T00:54:48.478Z,9.40
2018-11-01T00:55:48.798Z,9.39
2018-11-01T00:56:49.188Z,9.39
2018-11-01T00:57:48.570Z,9.39
2018-11-01T00:58:49.025Z,9.39
2018-11-01T00:59:49.294Z,9.40
2018-11-01T01:00:48.767Z,9.39
2018-11-01T01:01:49.264Z,9.39
2018-11-01T01:02:48.673Z,9.39
2018-11-01T01:03:49.136Z,9.37
2018-11-01T01:04:48.425Z,9.39
2018-11-01T01:05:48.924Z,9.37
2018-11-01T01:06:49.285Z,9.37
2018-11-01T01:07:48.494Z,9.37
2018-11-01T01:08:49.021Z,9.37
2018-11-01T01:09:49.373Z,9.39
2018-11-01T01:11:11.616Z,9.36
2018-11-01T01:12:11.771Z,9.37
2018-11-01T01:13:12.159Z,9.40
2018-11-01T01:14:11.651Z,9.44
2018-11-01T01:15:11.964Z,9.47
2018-11-01T01:16:12.391Z,9.48
2018-11-01T01:17:11.817Z,9.47
2018-11-01T01:18:12.470Z,9.55
2018-11-01T01:19:11.883Z,9.56
2018-11-01T01:20:12.405Z,9.58
2018-11-01T01:21:32.948Z,9.54
2018-11-01T01:22:33.430Z,9.51
2018-11-01T01:23:33.823Z,9.50
2018-11-01T01:24:33.321Z,9.50
2018-11-01T01:25:54.909Z,9.48
2018-11-01T01:26:55.346Z,9.46
2018-11-01T01:27:55.851Z,9.46
2018-11-01T01:28:55.049Z,9.44
2018-11-01T01:30:16.786Z,9.44
2018-11-01T01:31:17.035Z,9.41
2018-11-01T01:32:17.572Z,9.41
2018-11-01T01:33:17.100Z,9.44
2018-11-01T01:34:17.369Z,9.46
2018-11-01T01:35:16.801Z,9.48
2018-11-01T01:36:17.110Z,9.50
2018-11-01T01:37:39.589Z,9.46
2018-11-01T01:38:39.954Z,9.41
2018-11-01T01:40:03.284Z,9.36
2018-11-01T01:41:03.690Z,9.31
2018-11-01T01:42:04.176Z,9.26
2018-11-01T01:43:03.340Z,9.23
2018-11-01T01:44:03.734Z,9.19
2018-11-01T01:45:03.940Z,9.16
2018-11-01T01:46:04.139Z,9.14
2018-11-01T01:47:03.450Z,9.13
2018-11-01T01:48:03.994Z,9.08
2018-11-01T01:49:03.450Z,9.08
2018-11-01T01:50:27.048Z,9.10
2018-11-01T01:51:27.627Z,9.10
2018-11-01T01:52:47.966Z,9.10
2018-11-01T01:53:48.381Z,9.11
2018-11-01T01:54:48.924Z,9.11
2018-11-01T01:55:48.227Z,9.11
2018-11-01T01:56:48.618Z,9.10
2018-11-01T01:57:48.878Z,9.10
2018-11-01T01:59:30.614Z,9.14
2018-11-01T02:00:30.842Z,9.14
2018-11-01T02:01:31.357Z,9.18
2018-11-01T02:03:14.205Z,9.19
2018-11-01T02:04:14.578Z,9.19
2018-11-01T02:05:35.920Z,9.18
2018-11-01T02:06:36.264Z,9.16
2018-11-01T02:07:36.399Z,9.16
2018-11-01T02:08:36.666Z,9.16
2018-11-01T02:09:35.953Z,9.14
2018-11-01T02:10:36.338Z,9.16
2018-11-01T02:11:57.894Z,9.21
2018-11-01T02:12:58.505Z,9.22
2018-11-01T02:13:57.914Z,9.22
2018-11-01T02:14:58.114Z,9.25
2018-11-01T02:15:58.514Z,9.25
2018-11-01T02:17:19.878Z,9.28
2018-11-01T02:18:41.261Z,9.28
2018-11-01T02:19:41.687Z,9.26
2018-11-01T02:21:03.050Z,9.29
2018-11-01T02:22:03.315Z,9.29
2018-11-01T02:23:03.652Z,9.31
2018-11-01T02:24:03.182Z,9.31
2018-11-01T02:25:03.748Z,9.32
2018-11-01T02:26:03.198Z,9.32
2018-11-01T02:27:03.599Z,9.34
2018-11-01T02:28:03.800Z,9.32
2018-11-01T02:29:03.221Z,9.36
2018-11-01T02:30:03.738Z,9.36
2018-11-01T02:31:04.025Z,9.37
2018-11-01T02:32:45.727Z,9.36
2018-11-01T02:33:46.103Z,9.36
2018-11-01T02:35:07.380Z,9.36
2018-11-01T02:36:07.816Z,9.36
2018-11-01T02:37:08.202Z,9.36
2018-11-01T02:38:28.960Z,9.37
2018-11-01T02:39:29.378Z,9.36
2018-11-01T02:40:29.844Z,9.36
2018-11-01T02:41:29.182Z,9.37
2018-11-01T02:42:29.641Z,9.39
2018-11-01T02:43:28.887Z,9.41
2018-11-01T02:44:29.072Z,9.39
2018-11-01T02:45:29.129Z,9.39
2018-11-01T02:46:29.300Z,9.40
2018-11-01T02:47:29.731Z,9.39
2018-11-01T02:48:28.948Z,9.37
2018-11-01T02:49:29.127Z,9.36
2018-11-01T02:50:29.426Z,9.36
2018-11-01T02:51:28.851Z,9.31
2018-11-01T02:52:29.253Z,9.39
2018-11-01T02:53:28.651Z,9.40
2018-11-01T02:54:29.086Z,9.37
2018-11-01T02:55:29.415Z,9.37
2018-11-01T02:56:50.749Z,9.36
2018-11-01T02:57:51.045Z,9.43
2018-11-01T02:58:51.341Z,9.54
2018-11-01T03:00:14.681Z,9.61
2018-11-01T03:01:36.206Z,9.62
2018-11-01T03:02:36.465Z,9.64
2018-11-01T03:03:36.913Z,9.69
2018-11-01T03:04:36.318Z,9.72
2018-11-01T03:05:57.951Z,9.77
2018-11-01T03:06:58.240Z,9.83
2018-11-01T03:07:58.740Z,9.89
2018-11-01T03:08:58.080Z,9.87
2018-11-01T03:09:58.571Z,9.91
2018-11-01T03:10:57.918Z,9.91
2018-11-01T03:11:58.118Z,9.91
2018-11-01T03:12:58.320Z,9.95
2018-11-01T03:13:57.814Z,9.95
2018-11-01T03:14:58.838Z,9.98
2018-11-01T03:15:57.984Z,9.99
2018-11-01T03:16:58.479Z,9.97
2018-11-01T03:17:57.797Z,9.95
2018-11-01T03:18:58.104Z,9.94
2018-11-01T03:19:58.623Z,9.92
2018-11-01T03:21:19.449Z,9.94
2018-11-01T03:22:19.835Z,9.94
2018-11-01T03:23:20.251Z,9.94
2018-11-01T03:24:19.591Z,9.95
2018-11-01T03:25:19.914Z,9.94
2018-11-01T03:26:20.328Z,9.95
2018-11-01T03:27:19.919Z,9.98
2018-11-01T03:28:20.159Z,9.97
2018-11-01T03:29:19.496Z,9.98
2018-11-01T03:30:19.828Z,9.97
2018-11-01T03:31:41.417Z,9.97
2018-11-01T03:32:42.036Z,9.94
2018-11-01T03:33:42.298Z,9.91
2018-11-01T03:35:02.794Z,9.89
2018-11-01T03:36:03.264Z,9.89
2018-11-01T03:37:02.821Z,9.92
2018-11-01T03:38:03.360Z,9.94
2018-11-01T03:39:02.987Z,9.95
2018-11-01T03:40:24.627Z,9.92
2018-11-01T03:41:24.930Z,9.89
2018-11-01T03:42:25.243Z,9.86
2018-11-01T03:43:25.511Z,9.84
2018-11-01T03:44:24.987Z,9.82
2018-11-01T03:45:25.358Z,9.80
2018-11-01T03:46:24.572Z,9.77
2018-11-01T03:47:24.808Z,9.73
2018-11-01T03:48:25.451Z,9.66
2018-11-01T03:49:24.979Z,9.65
2018-11-01T03:50:25.299Z,9.65
2018-11-01T03:51:24.678Z,9.72
2018-11-01T03:52:25.284Z,9.68
2018-11-01T03:53:45.618Z,9.61
2018-11-01T03:55:07.065Z,9.58
2018-11-01T03:56:07.501Z,9.55
2018-11-01T03:57:07.948Z,9.55
2018-11-01T03:58:07.262Z,9.54
2018-11-01T03:59:07.578Z,9.50
2018-11-01T04:00:29.016Z,9.47
2018-11-01T04:01:29.384Z,9.46
2018-11-01T04:02:29.756Z,9.41
2018-11-01T04:03:49.898Z,9.32
2018-11-01T04:04:50.305Z,9.34
2018-11-01T04:05:50.521Z,9.36
2018-11-01T04:06:49.782Z,9.37
2018-11-01T04:07:50.845Z,9.36
2018-11-01T04:09:11.084Z,9.37
2018-11-01T04:10:32.338Z,9.36
2018-11-01T04:11:32.502Z,9.34
2018-11-01T04:12:32.671Z,9.34
2018-11-01T04:14:23.543Z,9.29
2018-11-01T04:15:24.104Z,9.25
2018-11-01T04:16:44.810Z,9.21
2018-11-01T04:17:45.114Z,9.19
2018-11-01T04:18:45.449Z,9.14
2018-11-01T04:19:44.664Z,9.18
2018-11-01T04:20:44.965Z,9.19
2018-11-01T04:21:45.034Z,9.16
2018-11-01T04:23:06.349Z,9.18
2018-11-01T04:24:06.587Z,9.19
2018-11-01T04:25:06.771Z,9.19
2018-11-01T04:26:07.070Z,9.14
2018-11-01T04:27:06.419Z,9.18
2018-11-01T04:28:06.769Z,9.18
2018-11-01T04:29:07.081Z,9.16
2018-11-01T04:30:06.399Z,9.14
2018-11-01T04:31:06.580Z,9.11
2018-11-01T04:32:06.851Z,9.08
2018-11-01T04:33:09.387Z,9.06
2018-11-01T04:34:06.855Z,9.06
2018-11-01T04:35:06.239Z,9.04
2018-11-01T04:36:27.713Z,9.04
2018-11-01T04:37:27.991Z,9.04
2018-11-01T04:38:28.343Z,9.08
2018-11-01T04:39:27.523Z,9.03
2018-11-01T04:40:27.764Z,9.02
2018-11-01T04:41:27.899Z,8.97
2018-11-01T04:42:28.271Z,8.95
2018-11-01T04:43:28.397Z,8.92
2018-11-01T04:44:27.969Z,8.92
2018-11-01T04:45:49.398Z,8.92
2018-11-01T04:46:49.557Z,8.92
2018-11-01T04:47:50.240Z,8.89
2018-11-01T04:49:10.523Z,8.87
2018-11-01T04:50:31.786Z,8.81
2018-11-01T04:51:32.196Z,8.78
2018-11-01T04:52:32.485Z,8.78
2018-11-01T04:53:31.894Z,8.73
2018-11-01T04:54:55.139Z,8.74
2018-11-01T04:55:55.530Z,8.76
2018-11-01T04:56:55.849Z,8.74
2018-11-01T04:57:56.099Z,8.76
2018-11-01T04:59:16.206Z,8.81
2018-11-01T05:00:16.414Z,8.84
2018-11-01T05:01:16.583Z,8.82
2018-11-01T05:02:16.787Z,8.81
2018-11-01T05:03:17.253Z,8.81
2018-11-01T05:04:16.740Z,8.82
2018-11-01T05:05:17.074Z,8.82
2018-11-01T05:06:16.363Z,8.85
2018-11-01T05:07:16.767Z,8.85
2018-11-01T05:08:16.970Z,8.88
2018-11-01T05:09:16.335Z,8.88
2018-11-01T05:10:17.930Z,8.89
2018-11-01T05:11:17.247Z,8.94
2018-11-01T05:12:16.495Z,8.92
2018-11-01T05:13:16.911Z,8.89
2018-11-01T05:14:16.383Z,8.92
2018-11-01T05:15:16.991Z,8.97
2018-11-01T05:16:37.578Z,8.97
2018-11-01T05:17:37.675Z,8.94
2018-11-01T05:18:37.952Z,8.95
2018-11-01T05:19:59.120Z,8.95
2018-11-01T05:20:59.150Z,8.92
2018-11-01T05:21:59.592Z,8.89
2018-11-01T05:22:59.791Z,8.88
2018-11-01T05:24:00.124Z,8.87
2018-11-01T05:24:59.660Z,8.88
2018-11-01T05:26:00.057Z,8.84
2018-11-01T05:27:20.897Z,8.81
2018-11-01T05:28:21.059Z,8.79
2018-11-01T05:29:21.302Z,8.78
2018-11-01T05:30:42.632Z,8.78
2018-11-01T05:31:42.985Z,8.78
2018-11-01T05:32:43.305Z,8.78
2018-11-01T05:33:42.698Z,8.79
2018-11-01T05:35:04.028Z,8.82
2018-11-01T05:36:04.485Z,8.81
2018-11-01T05:37:04.788Z,8.82
2018-11-01T05:38:25.126Z,8.78
2018-11-01T05:39:25.461Z,8.78
2018-11-01T05:40:25.825Z,8.76
2018-11-01T05:41:25.325Z,8.78
2018-11-01T05:42:25.563Z,8.78
2018-11-01T05:43:25.843Z,8.79
2018-11-01T05:44:25.107Z,8.82
2018-11-01T05:45:25.338Z,8.85
2018-11-01T05:46:25.482Z,8.85
2018-11-01T05:47:25.972Z,8.88
2018-11-01T05:48:25.308Z,8.88
2018-11-01T05:49:25.383Z,8.88
2018-11-01T05:50:25.522Z,8.85
2018-11-01T05:51:25.711Z,8.85
2018-11-01T05:52:26.088Z,8.85
2018-11-01T05:53:25.561Z,8.84
2018-11-01T05:54:25.831Z,8.91
2018-11-01T05:55:25.463Z,8.91
2018-11-01T05:56:25.993Z,8.91
2018-11-01T05:57:25.469Z,8.92
2018-11-01T05:58:25.872Z,8.91
2018-11-01T05:59:25.258Z,8.92
2018-11-01T06:00:25.612Z,8.89
2018-11-01T06:01:25.053Z,8.89
2018-11-01T06:02:25.349Z,8.88
2018-11-01T06:03:25.579Z,8.88
2018-11-01T06:04:26.080Z,8.84
2018-11-01T06:05:25.659Z,8.81
2018-11-01T06:06:26.028Z,8.81
2018-11-01T06:07:25.386Z,8.78
2018-11-01T06:08:25.933Z,8.74
2018-11-01T06:09:24.911Z,8.74
2018-11-01T06:10:46.169Z,8.76
2018-11-01T06:11:46.641Z,8.71
2018-11-01T06:12:47.006Z,8.73
2018-11-01T06:13:46.448Z,8.71
2018-11-01T06:14:46.973Z,8.71
2018-11-01T06:15:46.460Z,8.71
2018-11-01T06:16:46.898Z,8.78
2018-11-01T06:17:46.337Z,8.79
2018-11-01T06:18:46.703Z,8.74
2018-11-01T06:19:46.162Z,8.73
2018-11-01T06:20:46.688Z,8.71
2018-11-01T06:21:46.397Z,8.78
2018-11-01T06:22:46.652Z,8.78
2018-11-01T06:23:47.036Z,8.79
2018-11-01T06:24:46.267Z,8.76
2018-11-01T06:25:46.665Z,8.74
2018-11-01T06:27:08.144Z,8.76
2018-11-01T06:28:09.068Z,8.79
2018-11-01T06:29:08.352Z,8.79
2018-11-01T06:30:09.175Z,8.78
2018-11-01T06:31:08.663Z,8.82
2018-11-01T06:32:10.272Z,8.82
2018-11-01T06:33:30.098Z,8.78
2018-11-01T06:34:51.158Z,8.74
2018-11-01T06:35:51.702Z,8.73
2018-11-01T06:36:52.242Z,8.74
2018-11-01T06:37:51.708Z,8.71
2018-11-01T06:38:52.173Z,8.69
2018-11-01T06:39:51.517Z,8.67
2018-11-01T06:40:51.953Z,8.69
2018-11-01T06:41:51.381Z,8.71
2018-11-01T06:42:51.698Z,8.69
2018-11-01T06:44:01.741Z,8.66
2018-11-01T06:45:16.180Z,8.73
2018-11-01T06:46:16.604Z,8.73
2018-11-01T06:47:17.189Z,8.70
2018-11-01T06:48:16.498Z,8.69
2018-11-01T06:49:16.848Z,8.66
2018-11-01T06:50:37.421Z,8.63
2018-11-01T06:51:38.016Z,8.61
2018-11-01T06:53:01.590Z,8.58
2018-11-01T06:54:02.153Z,8.55
2018-11-01T06:55:01.513Z,8.53
2018-11-01T06:56:01.883Z,8.55
2018-11-01T06:57:02.509Z,8.53
2018-11-01T06:58:02.003Z,8.52
2018-11-01T06:59:02.530Z,8.51
2018-11-01T07:00:44.127Z,8.53
2018-11-01T07:01:44.640Z,8.52
2018-11-01T07:02:45.137Z,8.52
2018-11-01T07:03:44.736Z,8.53
2018-11-01T07:04:44.684Z,8.53
2018-11-01T07:06:27.688Z,8.60
2018-11-01T07:07:28.216Z,8.61
2018-11-01T07:08:27.538Z,8.61
2018-11-01T07:09:28.109Z,8.61
2018-11-01T07:10:49.203Z,8.61
2018-11-01T07:12:11.169Z,8.66
2018-11-01T07:13:11.661Z,8.66
2018-11-01T07:14:11.288Z,8.66
2018-11-01T07:15:11.956Z,8.69
2018-11-01T07:16:11.218Z,8.70
2018-11-01T07:17:32.969Z,8.70
2018-11-01T07:18:33.004Z,8.66
2018-11-01T07:19:33.508Z,8.66
2018-11-01T07:20:32.946Z,8.69
2018-11-01T07:21:33.378Z,8.69
2018-11-01T07:22:33.021Z,8.69
2018-11-01T07:23:33.378Z,8.69
2018-11-01T07:24:32.947Z,8.70
2018-11-01T07:25:33.478Z,8.70
2018-11-01T07:26:54.288Z,8.71
2018-11-01T07:27:55.008Z,8.76
2018-11-01T07:29:15.660Z,8.76
2018-11-01T07:30:16.293Z,8.79
2018-11-01T07:31:16.707Z,8.79
2018-11-01T07:32:16.048Z,8.79
2018-11-01T07:33:15.405Z,8.82
2018-11-01T07:34:15.627Z,8.84
2018-11-01T07:35:16.285Z,8.85
2018-11-01T07:37:01.391Z,8.89
2018-11-01T07:38:41.439Z,8.94
2018-11-01T07:39:41.997Z,8.94
2018-11-01T07:40:41.444Z,8.95
2018-11-01T07:42:02.960Z,8.97
2018-11-01T07:43:03.615Z,9.02
2018-11-01T07:44:03.953Z,9.03
2018-11-01T07:45:03.412Z,9.06
2018-11-01T07:46:03.874Z,9.08
2018-11-01T07:47:03.472Z,9.10
2018-11-01T07:48:03.177Z,9.16
2018-11-01T07:49:03.742Z,9.21
2018-11-01T07:50:03.116Z,9.25
2018-11-01T07:51:03.369Z,9.28
2018-11-01T07:52:03.618Z,9.32
2018-11-01T07:53:04.080Z,9.37
2018-11-01T07:54:03.710Z,9.40
2018-11-01T07:55:02.986Z,9.44
2018-11-01T07:56:03.372Z,9.46
2018-11-01T07:57:04.312Z,9.48
2018-11-01T07:58:27.704Z,9.54
2018-11-01T07:59:27.281Z,9.56
2018-11-01T08:01:14.417Z,9.62
2018-11-01T08:02:15.152Z,9.62
2018-11-01T08:03:14.957Z,9.65
2018-11-01T08:04:14.417Z,9.68
2018-11-01T08:05:14.998Z,9.69
2018-11-01T08:06:15.517Z,9.72
2018-11-01T08:07:15.954Z,9.73
2018-11-01T08:08:14.369Z,9.77
2018-11-01T08:09:14.743Z,9.80
2018-11-01T08:10:19.134Z,9.83
2018-11-01T08:11:38.024Z,9.89
2018-11-01T08:13:01.505Z,9.92
2018-11-01T08:14:01.877Z,9.97
2018-11-01T08:15:02.387Z,10.01
2018-11-01T08:16:25.667Z,10.05
2018-11-01T08:17:26.281Z,10.12
2018-11-01T08:18:25.541Z,10.15
2018-11-01T08:19:47.461Z,10.20
2018-11-01T08:20:48.126Z,10.23
2018-11-01T08:21:47.834Z,10.26
2018-11-01T08:22:47.632Z,10.31
2018-11-01T08:24:09.362Z,10.34
2018-11-01T08:25:10.002Z,10.37
2018-11-01T08:26:33.488Z,10.41
2018-11-01T08:27:34.413Z,10.46
2018-11-01T08:28:34.133Z,10.51
2018-11-01T08:29:33.513Z,10.54
2018-11-01T08:30:33.951Z,10.60
2018-11-01T08:31:34.165Z,10.64
2018-11-01T08:32:33.775Z,10.71
2018-11-01T08:33:33.314Z,10.75
2018-11-01T08:34:34.108Z,10.79
2018-11-01T08:35:33.744Z,10.84
2018-11-01T08:36:57.326Z,10.92
2018-11-01T08:38:24.909Z,11.02
2018-11-01T08:39:25.525Z,11.08
2018-11-01T08:40:25.017Z,11.15
2018-11-01T08:41:25.512Z,11.18
2018-11-01T08:42:24.783Z,11.23
2018-11-01T08:43:25.173Z,11.27
2018-11-01T08:44:25.462Z,11.29
2018-11-01T08:45:25.953Z,11.35
2018-11-01T08:46:25.524Z,11.44
2018-11-01T08:47:27.626Z,11.52
2018-11-01T08:48:25.526Z,11.62
2018-11-01T08:49:25.020Z,11.66
2018-11-01T08:50:25.453Z,11.75
2018-11-01T08:51:25.831Z,11.80
2018-11-01T08:52:25.210Z,11.83
2018-11-01T08:53:25.745Z,11.87
2018-11-01T08:54:25.099Z,11.94
2018-11-01T08:55:25.867Z,11.97
2018-11-01T08:56:25.260Z,12.04
2018-11-01T08:57:46.547Z,12.03
2018-11-01T08:58:47.302Z,12.03
2018-11-01T08:59:46.951Z,12.03
2018-11-01T09:00:47.437Z,12.06
2018-11-01T09:01:47.005Z,12.13
2018-11-01T09:02:47.623Z,12.17
2018-11-01T09:03:46.953Z,12.20
2018-11-01T09:04:47.495Z,12.22
2018-11-01T09:05:46.909Z,12.32
2018-11-01T09:06:47.600Z,12.37
2018-11-01T09:07:47.980Z,12.36
2018-11-01T09:08:48.124Z,12.40
2018-11-01T09:09:47.044Z,12.45
2018-11-01T09:11:11.460Z,12.46
2018-11-01T09:12:11.966Z,12.42
2018-11-01T09:13:11.569Z,12.37
2018-11-01T09:14:35.461Z,12.37
2018-11-01T09:15:33.934Z,12.40
2018-11-01T09:16:34.581Z,12.45
2018-11-01T09:17:34.108Z,12.47
2018-11-01T09:18:33.606Z,12.54
2018-11-01T09:19:34.429Z,12.58
2018-11-01T09:20:34.248Z,12.57
2018-11-01T09:21:34.051Z,12.53
2018-11-01T09:22:57.778Z,12.42
2018-11-01T09:23:59.154Z,12.39
2018-11-01T09:24:58.601Z,12.31
2018-11-01T09:25:58.438Z,12.24
2018-11-01T09:26:58.023Z,12.25
2018-11-01T09:27:58.701Z,12.29
2018-11-01T09:29:00.157Z,12.35
2018-11-01T09:29:59.710Z,12.35
2018-11-01T09:30:58.113Z,12.35
2018-11-01T09:31:58.494Z,12.36
2018-11-01T09:32:58.079Z,12.37
2018-11-01T09:34:02.308Z,12.37
2018-11-01T09:34:57.946Z,12.40
2018-11-01T09:35:58.398Z,12.37
2018-11-01T09:36:57.905Z,12.37
2018-11-01T09:37:58.458Z,12.39
2018-11-01T09:38:58.177Z,12.42
2018-11-01T09:39:57.834Z,12.40
2018-11-01T09:40:58.563Z,12.39
2018-11-01T09:41:58.243Z,12.35
2018-11-01T09:43:20.109Z,12.27
2018-11-01T09:44:20.721Z,12.22
2018-11-01T09:45:20.376Z,12.25
2018-11-01T09:46:20.971Z,12.27
2018-11-01T09:47:20.820Z,12.28
2018-11-01T09:48:20.984Z,12.35
2018-11-01T09:49:20.842Z,12.35
2018-11-01T09:50:20.743Z,12.32
2018-11-01T09:51:20.537Z,12.35
2018-11-01T09:52:19.997Z,12.35
2018-11-01T09:53:20.458Z,12.32
2018-11-01T09:54:20.959Z,12.35
2018-11-01T09:55:20.546Z,12.36
2018-11-01T09:56:41.630Z,12.36
2018-11-01T09:57:42.257Z,12.39
2018-11-01T09:58:41.724Z,12.37
2018-11-01T09:59:43.783Z,12.39
2018-11-01T10:01:09.384Z,12.32
2018-11-01T10:02:09.384Z,12.29
2018-11-01T10:03:53.711Z,12.28
2018-11-01T10:05:14.782Z,12.31
2018-11-01T10:06:15.585Z,12.31
2018-11-01T10:07:15.204Z,12.29
2018-11-01T10:08:14.855Z,12.27
2018-11-01T10:09:15.590Z,12.28
2018-11-01T10:10:36.486Z,12.28
2018-11-01T10:11:37.199Z,12.29
2018-11-01T10:12:36.753Z,12.31
2018-11-01T10:13:37.473Z,12.31
2018-11-01T10:14:38.284Z,12.32
2018-11-01T10:15:37.543Z,12.31
2018-11-01T10:16:36.328Z,12.35
2018-11-01T10:17:37.188Z,12.40
2018-11-01T10:18:58.540Z,12.45
2018-11-01T10:19:58.841Z,12.47
2018-11-01T10:20:59.717Z,12.39
2018-11-01T10:21:59.415Z,12.35
2018-11-01T10:22:59.022Z,12.29
2018-11-01T10:23:58.792Z,12.28
2018-11-01T10:24:59.367Z,12.25
2018-11-01T10:25:58.602Z,12.28
2018-11-01T10:26:59.216Z,12.32
2018-11-01T10:27:59.157Z,12.36
2018-11-01T10:28:58.691Z,12.40
2018-11-01T10:29:59.336Z,12.43
2018-11-01T10:30:58.877Z,12.46
2018-11-01T10:31:59.459Z,12.53
2018-11-01T10:32:58.992Z,12.55
2018-11-01T10:33:58.558Z,12.54
2018-11-01T10:34:59.244Z,12.55
2018-11-01T10:35:59.039Z,12.54
2018-11-01T10:36:58.602Z,12.57
2018-11-01T10:37:58.986Z,12.60
2018-11-01T10:38:59.345Z,12.58
2018-11-01T10:39:58.809Z,12.58
2018-11-01T10:40:58.586Z,12.58
2018-11-01T10:41:59.205Z,12.61
2018-11-01T10:42:58.970Z,12.64
2018-11-01T10:43:59.468Z,12.62
2018-11-01T10:44:58.899Z,12.65
2018-11-01T10:45:59.459Z,12.67
2018-11-01T10:47:20.554Z,12.67
2018-11-01T10:48:20.981Z,12.72
2018-11-01T10:49:42.478Z,12.76
2018-11-01T10:50:42.987Z,12.76
2018-11-01T10:51:43.403Z,12.79
2018-11-01T10:52:42.880Z,12.79
2018-11-01T10:53:43.328Z,12.82
2018-11-01T10:54:42.798Z,12.85
2018-11-01T10:55:43.402Z,12.85
2018-11-01T10:57:06.248Z,12.87
2018-11-01T10:58:06.894Z,12.91
2018-11-01T10:59:06.377Z,12.91
2018-11-01T11:00:07.384Z,12.90
2018-11-01T11:01:07.192Z,12.93
2018-11-01T11:02:06.939Z,12.94
2018-11-01T11:03:06.203Z,12.97
2018-11-01T11:04:06.638Z,12.94
2018-11-01T11:05:06.161Z,12.91
2018-11-01T11:06:06.767Z,12.93
2018-11-01T11:07:07.168Z,12.98
2018-11-01T11:08:06.860Z,13.05
2018-11-01T11:09:06.384Z,13.08
2018-11-01T11:10:07.166Z,13.00
2018-11-01T11:11:06.509Z,12.93
2018-11-01T11:12:07.107Z,12.94
2018-11-01T11:13:06.459Z,12.95
2018-11-01T11:14:06.814Z,12.97
2018-11-01T11:15:06.359Z,12.98
2018-11-01T11:16:06.815Z,13.00
2018-11-01T11:17:27.418Z,13.04
2018-11-01T11:18:27.909Z,13.00
2018-11-01T11:19:27.433Z,12.95
2018-11-01T11:20:27.948Z,12.95
2018-11-01T11:21:27.799Z,12.98
2018-11-01T11:22:28.254Z,13.00
2018-11-01T11:23:27.942Z,13.01
2018-11-01T11:24:28.360Z,13.03
2018-11-01T11:25:27.805Z,13.03
2018-11-01T11:26:28.415Z,13.03
2018-11-01T11:27:27.669Z,13.05
2018-11-01T11:28:28.096Z,13.05
2018-11-01T11:29:27.775Z,13.08
2018-11-01T11:30:28.268Z,13.09
2018-11-01T11:31:28.001Z,13.08
2018-11-01T11:32:27.703Z,13.09
2018-11-01T11:33:28.249Z,13.09
2018-11-01T11:34:27.508Z,13.09
2018-11-01T11:35:27.802Z,13.09
2018-11-01T11:36:30.492Z,13.13
2018-11-01T11:37:28.736Z,13.13
2018-11-01T11:38:28.158Z,13.15
2018-11-01T11:39:29.493Z,13.16
2018-11-01T11:40:28.105Z,13.15
2018-11-01T11:42:10.976Z,13.11
2018-11-01T11:43:11.653Z,13.05
2018-11-01T11:44:11.102Z,13.04
2018-11-01T11:45:10.848Z,13.04
2018-11-01T11:46:11.484Z,13.09
2018-11-01T11:47:10.787Z,13.11
2018-11-01T11:48:32.911Z,13.03
2018-11-01T11:49:33.360Z,13.01
2018-11-01T11:50:33.076Z,13.01
2018-11-01T11:51:32.921Z,13.03
2018-11-01T11:52:33.932Z,13.00
2018-11-01T11:53:33.450Z,13.03
2018-11-01T11:54:54.472Z,13.03
2018-11-01T11:55:54.700Z,13.03
2018-11-01T11:56:55.152Z,13.00
2018-11-01T11:57:57.267Z,13.00
2018-11-01T11:58:54.864Z,12.97
2018-11-01T11:59:54.420Z,12.94
2018-11-01T12:00:57.081Z,12.91
2018-11-01T12:01:54.339Z,12.91
2018-11-01T12:02:54.500Z,12.93
2018-11-01T12:03:54.833Z,12.91
2018-11-01T12:04:54.234Z,12.93
2018-11-01T12:05:54.762Z,12.90
2018-11-01T12:06:55.269Z,12.86
2018-11-01T12:07:54.664Z,12.86
2018-11-01T12:08:55.011Z,12.86
2018-11-01T12:09:54.446Z,12.87
2018-11-01T12:10:54.878Z,12.87
2018-11-01T12:11:54.478Z,12.87
2018-11-01T12:12:54.952Z,12.86
2018-11-01T12:14:39.031Z,12.86
2018-11-01T12:15:38.725Z,12.87
2018-11-01T12:16:38.235Z,12.90
2018-11-01T12:18:21.549Z,12.93
2018-11-01T12:19:22.154Z,12.93
2018-11-01T12:20:21.615Z,12.91
2018-11-01T12:21:22.277Z,12.90
2018-11-01T12:22:21.867Z,12.86
2018-11-01T12:23:22.375Z,12.90
2018-11-01T12:24:21.944Z,12.93
2018-11-01T12:25:21.509Z,12.91
2018-11-01T12:26:22.096Z,12.91
2018-11-01T12:27:21.851Z,12.93
2018-11-01T12:28:42.796Z,12.93
2018-11-01T12:29:43.932Z,12.87
2018-11-01T12:31:04.767Z,12.86
2018-11-01T12:32:05.340Z,12.86
2018-11-01T12:33:04.996Z,12.87
2018-11-01T12:34:04.613Z,12.85
2018-11-01T12:35:05.497Z,12.76
2018-11-01T12:36:05.084Z,12.80
2018-11-01T12:37:05.766Z,12.82
2018-11-01T12:38:05.447Z,12.82
2018-11-01T12:39:05.059Z,12.79
2018-11-01T12:40:05.617Z,12.79
2018-11-01T12:41:05.055Z,12.80
2018-11-01T12:42:04.747Z,12.79
2018-11-01T12:43:05.506Z,12.75
2018-11-01T12:44:05.230Z,12.75
2018-11-01T12:45:26.208Z,12.79
2018-11-01T12:46:26.893Z,12.80
2018-11-01T12:47:26.361Z,12.78
2018-11-01T12:48:26.868Z,12.73
2018-11-01T12:49:26.209Z,12.70
2018-11-01T12:50:26.564Z,12.65
2018-11-01T12:51:47.247Z,12.60
2018-11-01T12:52:47.554Z,12.57
2018-11-01T12:53:48.203Z,12.54
2018-11-01T12:55:09.035Z,12.49
2018-11-01T12:56:09.471Z,12.46
2018-11-01T12:57:09.129Z,12.46
2018-11-01T12:58:09.785Z,12.45
2018-11-01T12:59:09.299Z,12.42
2018-11-01T13:00:09.831Z,12.45
2018-11-01T13:01:09.161Z,12.43
2018-11-01T13:02:31.565Z,12.40
2018-11-01T13:03:32.057Z,12.40
2018-11-01T13:04:31.667Z,12.39
2018-11-01T13:05:32.469Z,12.37
2018-11-01T13:06:53.236Z,12.40
2018-11-01T13:07:53.629Z,12.37
2018-11-01T13:08:54.214Z,12.36
2018-11-01T13:09:53.619Z,12.35
2018-11-01T13:10:54.256Z,12.31
2018-11-01T13:11:53.785Z,12.29
2018-11-01T13:12:53.207Z,12.28
2018-11-01T13:13:53.705Z,12.24
2018-11-01T13:14:53.188Z,12.21
2018-11-01T13:15:53.868Z,12.20
2018-11-01T13:16:53.370Z,12.17
2018-11-01T13:18:15.157Z,12.13
2018-11-01T13:19:15.586Z,12.13
2018-11-01T13:20:16.010Z,12.12
2018-11-01T13:21:15.596Z,12.10
2018-11-01T13:22:37.713Z,12.06
2018-11-01T13:23:38.097Z,12.04
2018-11-01T13:24:37.651Z,12.00
2018-11-01T13:26:22.397Z,11.95
2018-11-01T13:27:22.778Z,11.94
2018-11-01T13:28:22.346Z,11.90
2018-11-01T13:29:23.117Z,11.94
2018-11-01T13:30:23.013Z,11.91
2018-11-01T13:31:22.711Z,11.90
2018-11-01T13:32:24.189Z,11.90
2018-11-01T13:33:23.199Z,11.88
2018-11-01T13:34:22.722Z,11.86
2018-11-01T13:35:22.437Z,11.84
2018-11-01T13:36:23.256Z,11.78
2018-11-01T13:37:44.151Z,11.78
2018-11-01T13:38:44.937Z,11.77
2018-11-01T13:39:44.641Z,11.78
2018-11-01T13:40:45.615Z,11.77
2018-11-01T13:41:45.208Z,11.78
2018-11-01T13:42:45.080Z,11.77
2018-11-01T13:43:44.684Z,11.75
2018-11-01T13:45:05.812Z,11.73
2018-11-01T13:46:06.103Z,11.72
2018-11-01T13:47:06.662Z,11.68
2018-11-01T13:48:06.385Z,11.66
2018-11-01T13:49:06.177Z,11.66
2018-11-01T13:50:05.840Z,11.66
2018-11-01T13:51:06.505Z,11.66
2018-11-01T13:52:06.675Z,11.68
2018-11-01T13:53:06.227Z,11.69